Time;durP1;ratioP1;P1;durP2;ratioP2;P2;SDS_P1;SDS_P2;PMS_P1;PMS_P2;Temp;Humidity;BMP_temperature;BMP_pressure;BME280_temperature;BME280_humidity;BME280_pressure;Samples;Min_cycle;Max_cycle;Signal;HPM_P1;HPM_P2
2023/08/19 00:00:49;;;;;;;30.77;25.15;;;21.00;99.90;;;;;;5034023;28;20403;-68
2023/08/19 00:03:15;;;;;;;29.90;24.50;;;21.00;99.90;;;;;;5017100;28;20037;-68
2023/08/19 00:05:41;;;;;;;29.65;25.25;;;21.00;99.90;;;;;;5011582;28;20045;-68
2023/08/19 00:08:06;;;;;;;31.63;25.20;;;21.00;99.90;;;;;;5008115;28;20037;-69
2023/08/19 00:10:32;;;;;;;32.00;26.23;;;21.10;99.90;;;;;;5034616;28;20446;-67
2023/08/19 00:12:57;;;;;;;32.30;26.48;;;21.10;99.90;;;;;;5030962;28;20030;-69
2023/08/19 00:15:23;;;;;;;31.63;26.45;;;21.10;99.90;;;;;;5015821;28;20033;-68
2023/08/19 00:17:49;;;;;;;32.47;25.75;;;21.20;99.90;;;;;;5033431;28;20025;-66
2023/08/19 00:20:14;;;;;;;31.58;26.40;;;21.20;99.90;;;;;;5016701;28;20097;-68
2023/08/19 00:22:40;;;;;;;30.38;26.60;;;21.20;99.90;;;;;;5021913;28;20068;-68
2023/08/19 00:25:06;;;;;;;32.38;26.48;;;21.20;99.90;;;;;;5030668;28;20079;-68
2023/08/19 00:27:31;;;;;;;31.23;25.88;;;21.10;99.90;;;;;;5015855;28;20104;-68
2023/08/19 00:29:57;;;;;;;31.45;24.65;;;21.10;99.90;;;;;;5030641;28;20044;-69
2023/08/19 00:32:22;;;;;;;29.75;24.33;;;21.10;99.90;;;;;;5014850;28;20407;-66
2023/08/19 00:34:48;;;;;;;29.90;24.33;;;21.00;99.90;;;;;;5033926;28;20041;-67
2023/08/19 00:37:14;;;;;;;27.45;23.77;;;21.00;99.90;;;;;;5033826;28;20049;-68
2023/08/19 00:39:39;;;;;;;28.30;24.10;;;20.90;99.90;;;;;;5008267;28;20127;-67
2023/08/19 00:42:09;;;;;;;28.33;24.65;;;20.90;99.90;;;;;;5026869;28;20033;-67
2023/08/19 00:44:34;;;;;;;32.22;24.27;;;20.90;99.90;;;;;;5033626;28;20488;-69
2023/08/19 00:47:02;;;;;;;30.88;25.13;;;20.90;99.90;;;;;;5008488;28;20037;-67
2023/08/19 00:49:29;;;;;;;32.08;25.13;;;20.90;99.90;;;;;;5029031;28;20079;-68
2023/08/19 00:51:56;;;;;;;31.48;25.10;;;21.00;99.90;;;;;;5033546;28;20056;-69
2023/08/19 00:54:21;;;;;;;34.25;26.27;;;21.00;99.90;;;;;;5009816;28;20536;-66
2023/08/19 00:56:47;;;;;;;30.10;25.02;;;21.00;99.90;;;;;;5021662;28;20049;-67
2023/08/19 00:59:13;;;;;;;36.08;25.88;;;21.10;99.90;;;;;;5013489;28;20568;-69
2023/08/19 01:01:38;;;;;;;30.52;24.88;;;21.10;99.90;;;;;;5015443;28;20049;-67
2023/08/19 01:04:04;;;;;;;27.33;23.88;;;21.10;99.90;;;;;;5004675;28;20038;-67
2023/08/19 01:06:45;;;;;;;29.95;24.58;;;21.10;99.90;;;;;;5031887;28;20091;-69
2023/08/19 01:09:23;;;;;;;31.33;25.40;;;21.10;99.90;;;;;;5014460;28;20083;-66
2023/08/19 01:12:14;;;;;;;28.75;24.27;;;21.10;99.90;;;;;;5012131;28;20120;-68
2023/08/19 01:15:09;;;;;;;31.80;23.90;;;21.10;99.90;;;;;;5025907;28;20484;-68
2023/08/19 01:17:35;;;;;;;28.90;24.42;;;21.00;99.90;;;;;;5030827;28;20049;-66
2023/08/19 01:20:01;;;;;;;29.13;24.30;;;21.00;99.90;;;;;;5028891;28;20070;-68
2023/08/19 01:22:59;;;;;;;26.67;22.65;;;21.00;99.90;;;;;;5013450;28;20041;-66
2023/08/19 01:25:26;;;;;;;31.27;23.38;;;21.00;99.90;;;;;;5033140;28;20116;-68
2023/08/19 01:27:51;;;;;;;30.08;24.63;;;21.00;99.90;;;;;;5028545;28;20587;-69
2023/08/19 01:30:17;;;;;;;32.13;24.15;;;20.90;99.90;;;;;;5014475;28;20037;-68
2023/08/19 01:32:44;;;;;;;28.25;23.30;;;21.00;99.90;;;;;;5014828;28;20055;-68
2023/08/19 01:35:11;;;;;;;30.10;23.98;;;20.90;99.90;;;;;;5033247;28;20179;-68
2023/08/19 01:37:51;;;;;;;29.63;23.30;;;21.00;99.90;;;;;;5025092;28;20094;-67
2023/08/19 01:40:16;;;;;;;28.02;24.25;;;20.90;99.90;;;;;;5028831;28;20029;-67
2023/08/19 01:42:44;;;;;;;27.92;21.88;;;20.90;99.90;;;;;;5031684;28;20087;-67
2023/08/19 01:45:11;;;;;;;28.67;22.02;;;20.80;99.90;;;;;;5012010;28;20488;-66
2023/08/19 01:47:42;;;;;;;28.00;23.23;;;20.70;99.90;;;;;;5006229;28;20507;-67
2023/08/19 01:50:08;;;;;;;29.50;23.75;;;20.70;99.90;;;;;;5031931;28;20037;-68
2023/08/19 01:52:35;;;;;;;32.80;23.77;;;20.70;99.90;;;;;;5011933;28;20033;-69
2023/08/19 01:55:01;;;;;;;30.92;23.65;;;20.70;99.90;;;;;;5010787;28;20046;-69
2023/08/19 01:57:27;;;;;;;29.40;23.58;;;20.80;99.90;;;;;;5012701;28;20103;-68
2023/08/19 01:59:57;;;;;;;30.50;23.38;;;20.80;99.90;;;;;;5026523;28;20396;-66
2023/08/19 02:02:25;;;;;;;27.58;22.80;;;20.80;99.90;;;;;;5024195;28;20092;-67
2023/08/19 02:04:51;;;;;;;29.75;23.77;;;20.80;99.90;;;;;;5005972;28;20405;-69
2023/08/19 02:07:17;;;;;;;31.08;23.58;;;20.80;99.90;;;;;;5031682;28;20496;-68
2023/08/19 02:09:44;;;;;;;30.33;23.38;;;20.80;99.90;;;;;;5027059;28;20034;-67
2023/08/19 02:12:09;;;;;;;31.88;23.50;;;20.80;99.90;;;;;;5012039;28;20103;-66
2023/08/19 02:14:35;;;;;;;31.02;23.27;;;20.80;99.90;;;;;;5031832;28;20439;-69
2023/08/19 02:17:01;;;;;;;33.92;24.42;;;20.80;99.90;;;;;;5031817;28;20064;-67
2023/08/19 02:19:26;;;;;;;27.25;22.20;;;20.80;99.90;;;;;;5020686;28;20737;-66
2023/08/19 02:21:52;;;;;;;28.88;23.38;;;20.80;99.90;;;;;;5031919;28;20475;-66
2023/08/19 02:24:17;;;;;;;30.15;23.88;;;20.80;99.90;;;;;;5014143;28;20091;-68
2023/08/19 02:26:43;;;;;;;30.13;23.45;;;20.80;99.90;;;;;;5009403;28;20045;-67
2023/08/19 02:29:09;;;;;;;32.40;24.83;;;20.70;99.90;;;;;;5012730;28;20026;-69
2023/08/19 02:31:36;;;;;;;28.95;23.52;;;20.70;99.90;;;;;;5013999;28;20037;-69
2023/08/19 02:34:01;;;;;;;31.50;24.38;;;20.80;99.90;;;;;;5031982;28;20099;-66
2023/08/19 02:36:27;;;;;;;30.55;23.88;;;20.70;99.90;;;;;;5001639;28;20633;-66
2023/08/19 02:38:53;;;;;;;30.00;22.95;;;20.70;99.90;;;;;;5031312;28;20033;-69
2023/08/19 02:41:18;;;;;;;30.27;22.63;;;20.70;99.90;;;;;;5031866;28;20040;-68
2023/08/19 02:43:44;;;;;;;28.00;23.45;;;20.70;99.90;;;;;;5025108;28;20083;-67
2023/08/19 02:46:09;;;;;;;29.27;22.45;;;20.70;99.90;;;;;;5007114;28;20110;-67
2023/08/19 02:48:35;;;;;;;30.42;23.23;;;20.70;99.90;;;;;;5031178;28;20463;-69
2023/08/19 02:51:01;;;;;;;28.15;22.65;;;20.60;99.90;;;;;;5010447;28;20044;-69
2023/08/19 02:53:28;;;;;;;30.23;23.75;;;20.60;99.90;;;;;;5012948;28;20431;-67
2023/08/19 02:55:54;;;;;;;29.92;23.02;;;20.60;99.90;;;;;;5031400;28;20091;-66
2023/08/19 02:58:20;;;;;;;29.60;23.25;;;20.60;99.90;;;;;;5031158;28;20124;-67
2023/08/19 03:00:47;;;;;;;27.05;22.15;;;20.60;99.90;;;;;;5006911;28;20108;-69
2023/08/19 03:03:13;;;;;;;27.95;22.70;;;20.60;99.90;;;;;;5012770;28;20056;-69
2023/08/19 03:05:39;;;;;;;27.80;21.38;;;20.70;99.90;;;;;;5031369;28;20042;-67
2023/08/19 03:08:06;;;;;;;31.90;22.55;;;20.70;99.90;;;;;;5026834;28;20041;-67
2023/08/19 03:10:33;;;;;;;31.55;22.23;;;20.60;99.90;;;;;;5024507;28;20041;-67
2023/08/19 03:12:59;;;;;;;29.67;22.98;;;20.60;99.90;;;;;;5030713;28;20073;-67
2023/08/19 03:15:25;;;;;;;31.92;23.40;;;20.60;99.90;;;;;;5031354;28;20081;-68
2023/08/19 03:17:50;;;;;;;28.85;22.70;;;20.60;99.90;;;;;;5022188;28;20083;-67
2023/08/19 03:20:16;;;;;;;32.05;22.65;;;20.60;99.90;;;;;;5017100;28;20033;-69
2023/08/19 03:22:42;;;;;;;28.80;22.05;;;20.60;99.90;;;;;;5018628;28;20052;-68
2023/08/19 03:25:08;;;;;;;31.70;21.15;;;20.60;99.90;;;;;;5017623;28;20046;-66
2023/08/19 03:27:34;;;;;;;30.63;22.40;;;20.60;99.90;;;;;;5022505;28;20029;-68
2023/08/19 03:30:00;;;;;;;28.27;22.05;;;20.50;99.90;;;;;;5012674;28;20091;-68
2023/08/19 03:32:25;;;;;;;28.17;22.45;;;20.60;99.90;;;;;;5017891;28;20081;-68
2023/08/19 03:34:51;;;;;;;28.98;22.25;;;20.50;99.90;;;;;;5028430;28;20044;-68
2023/08/19 03:37:16;;;;;;;34.60;23.25;;;20.50;99.90;;;;;;5029977;28;20092;-68
2023/08/19 03:39:42;;;;;;;31.50;22.25;;;20.50;99.90;;;;;;5017571;28;20055;-67
2023/08/19 03:42:07;;;;;;;28.27;22.40;;;20.50;99.90;;;;;;5034830;28;20037;-68
2023/08/19 03:44:33;;;;;;;28.30;22.05;;;20.50;99.90;;;;;;5025821;28;20053;-68
2023/08/19 03:46:59;;;;;;;30.67;22.20;;;20.40;99.90;;;;;;5016436;28;20065;-67
2023/08/19 03:49:24;;;;;;;26.75;21.65;;;20.40;99.90;;;;;;5017616;28;20451;-67
2023/08/19 03:51:50;;;;;;;28.80;21.65;;;20.40;99.90;;;;;;5025835;28;20483;-69
2023/08/19 03:54:15;;;;;;;31.23;22.88;;;20.40;99.90;;;;;;5023940;28;20040;-69
2023/08/19 03:56:41;;;;;;;34.05;21.88;;;20.40;99.90;;;;;;5034612;28;20042;-68
2023/08/19 03:59:07;;;;;;;27.25;21.45;;;20.50;99.90;;;;;;5009264;28;20042;-67
2023/08/19 04:01:32;;;;;;;30.05;21.98;;;20.40;99.90;;;;;;5006765;28;20056;-67
2023/08/19 04:03:58;;;;;;;29.08;22.20;;;20.40;99.90;;;;;;5017820;28;20041;-68
2023/08/19 04:06:23;;;;;;;27.85;21.27;;;20.40;99.90;;;;;;5010465;28;20060;-68
2023/08/19 04:08:49;;;;;;;24.92;21.20;;;20.40;99.90;;;;;;5026153;28;20029;-68
2023/08/19 04:11:14;;;;;;;28.65;22.92;;;20.40;99.90;;;;;;5034220;28;20045;-66
2023/08/19 04:13:40;;;;;;;40.05;22.20;;;20.40;99.90;;;;;;5034179;28;20538;-68
2023/08/19 04:16:07;;;;;;;26.17;21.10;;;20.40;99.90;;;;;;5008499;28;20103;-68
2023/08/19 04:18:33;;;;;;;31.10;22.25;;;20.40;99.90;;;;;;5033629;28;20045;-67
2023/08/19 04:21:03;;;;;;;27.77;21.35;;;20.40;99.90;;;;;;5034278;28;20047;-68
2023/08/19 04:23:29;;;;;;;31.33;22.10;;;20.40;99.90;;;;;;5027833;28;20038;-67
2023/08/19 04:25:55;;;;;;;29.40;21.65;;;20.40;99.90;;;;;;5003198;28;20904;-68
2023/08/19 04:28:21;;;;;;;31.00;22.05;;;20.40;99.90;;;;;;5015159;28;20029;-66
2023/08/19 04:30:46;;;;;;;28.48;22.27;;;20.40;99.90;;;;;;5034554;28;20045;-68
2023/08/19 04:33:12;;;;;;;28.98;20.67;;;20.50;99.90;;;;;;5008809;28;20049;-66
2023/08/19 04:35:38;;;;;;;29.92;21.35;;;20.50;99.90;;;;;;5017199;28;20488;-67
2023/08/19 04:38:03;;;;;;;27.35;21.50;;;20.50;99.90;;;;;;5033304;28;20068;-67
2023/08/19 04:40:30;;;;;;;27.83;20.45;;;20.50;99.90;;;;;;5004575;28;20061;-69
2023/08/19 04:42:57;;;;;;;27.90;20.98;;;20.60;99.90;;;;;;5015393;28;20045;-68
2023/08/19 04:45:23;;;;;;;33.72;21.25;;;20.60;99.90;;;;;;5033313;28;20519;-68
2023/08/19 04:47:49;;;;;;;31.90;20.30;;;20.60;99.90;;;;;;5014994;28;20096;-68
2023/08/19 04:50:16;;;;;;;27.13;20.35;;;20.60;99.90;;;;;;5010106;28;20424;-68
2023/08/19 04:52:42;;;;;;;27.90;20.05;;;20.70;99.90;;;;;;5030224;28;20568;-68
2023/08/19 04:55:08;;;;;;;30.52;19.83;;;20.80;99.90;;;;;;5014983;28;20052;-68
2023/08/19 04:57:34;;;;;;;29.95;20.00;;;20.80;99.90;;;;;;5003239;28;20191;-66
2023/08/19 05:00:00;;;;;;;28.20;20.90;;;20.90;99.90;;;;;;5018285;28;20476;-66
2023/08/19 05:02:25;;;;;;;27.10;19.67;;;21.00;99.90;;;;;;5026080;28;20480;-66
2023/08/19 05:04:51;;;;;;;25.88;19.90;;;21.00;99.90;;;;;;5015156;28;20037;-68
2023/08/19 05:07:17;;;;;;;24.02;19.15;;;21.00;99.90;;;;;;5026876;28;20029;-67
2023/08/19 05:09:42;;;;;;;27.50;19.92;;;21.10;99.90;;;;;;5031982;28;20049;-69
2023/08/19 05:12:08;;;;;;;28.75;19.17;;;21.10;99.90;;;;;;5031911;28;20072;-68
2023/08/19 05:14:34;;;;;;;23.55;19.13;;;21.10;99.90;;;;;;5006489;28;20384;-68
2023/08/19 05:17:00;;;;;;;24.35;18.90;;;21.20;99.90;;;;;;5026915;28;20033;-69
2023/08/19 05:19:25;;;;;;;23.25;18.88;;;21.20;99.90;;;;;;5003420;28;20045;-69
2023/08/19 05:21:51;;;;;;;23.10;18.95;;;21.20;99.90;;;;;;5000475;28;20037;-68
2023/08/19 05:24:18;;;;;;;23.73;18.75;;;21.20;99.90;;;;;;5025790;28;20045;-69
2023/08/19 05:26:44;;;;;;;26.00;19.38;;;21.20;99.90;;;;;;5023586;28;20088;-69
2023/08/19 05:29:14;;;;;;;25.45;17.92;;;21.20;99.90;;;;;;5006151;28;20479;-67
2023/08/19 05:31:40;;;;;;;24.08;17.65;;;21.30;99.90;;;;;;5019974;28;20041;-68
2023/08/19 05:34:09;;;;;;;23.80;18.38;;;21.30;99.90;;;;;;5005819;28;20069;-68
2023/08/19 05:36:35;;;;;;;26.10;18.10;;;21.30;99.90;;;;;;5003289;28;20046;-69
2023/08/19 05:39:03;;;;;;;26.20;17.95;;;21.30;99.90;;;;;;5004035;28;20037;-70
2023/08/19 05:41:29;;;;;;;25.20;17.65;;;21.40;99.90;;;;;;5015344;28;20042;-70
2023/08/19 05:43:55;;;;;;;22.67;17.45;;;21.40;99.90;;;;;;5018460;28;20034;-67
2023/08/19 05:46:21;;;;;;;27.35;18.05;;;21.40;99.90;;;;;;5001621;28;20068;-68
2023/08/19 05:48:46;;;;;;;22.75;17.08;;;21.40;99.90;;;;;;5017898;28;20041;-68
2023/08/19 05:51:12;;;;;;;27.65;17.00;;;21.40;99.90;;;;;;5016175;28;20105;-68
2023/08/19 05:53:38;;;;;;;23.17;17.27;;;21.50;99.90;;;;;;5017746;28;20447;-67
2023/08/19 05:56:04;;;;;;;22.25;17.30;;;21.50;99.90;;;;;;5002354;28;20061;-68
2023/08/19 05:58:29;;;;;;;26.10;16.73;;;21.50;99.90;;;;;;5020661;28;20111;-68
2023/08/19 06:00:59;;;;;;;21.98;17.02;;;21.50;99.90;;;;;;5018429;28;20030;-68
2023/08/19 06:03:25;;;;;;;23.08;16.90;;;21.50;99.90;;;;;;5013518;28;20042;-69
2023/08/19 06:05:51;;;;;;;23.20;16.05;;;21.50;99.90;;;;;;5019299;28;20448;-69
2023/08/19 06:08:16;;;;;;;27.02;17.48;;;21.60;99.90;;;;;;5015566;28;20037;-71
2023/08/19 06:10:44;;;;;;;25.08;16.92;;;21.60;99.90;;;;;;5004422;28;20052;-68
2023/08/19 06:13:13;;;;;;;25.13;16.52;;;21.60;99.90;;;;;;5009626;28;20117;-70
2023/08/19 06:15:39;;;;;;;21.10;16.63;;;21.70;99.90;;;;;;5009871;28;20424;-70
2023/08/19 06:18:05;;;;;;;22.13;16.48;;;21.70;99.90;;;;;;5006865;28;20038;-69
2023/08/19 06:20:31;;;;;;;21.27;15.68;;;21.80;99.90;;;;;;4996558;28;20038;-69
2023/08/19 06:22:57;;;;;;;22.75;15.95;;;21.80;99.90;;;;;;4978806;28;20120;-69
2023/08/19 06:25:23;;;;;;;21.05;16.10;;;21.90;99.90;;;;;;5017746;28;20048;-70
2023/08/19 06:27:49;;;;;;;20.88;15.65;;;21.90;99.90;;;;;;5022687;28;20037;-70
2023/08/19 06:30:14;;;;;;;22.27;15.10;;;21.90;99.90;;;;;;4999234;28;20403;-68
2023/08/19 06:32:40;;;;;;;20.98;16.08;;;21.90;99.90;;;;;;4991582;28;20038;-68
2023/08/19 06:35:06;;;;;;;21.83;15.90;;;22.00;99.90;;;;;;5016647;28;20112;-70
2023/08/19 06:37:39;;;;;;;20.42;15.98;;;22.00;99.90;;;;;;5001521;28;20052;-70
2023/08/19 06:40:08;;;;;;;20.80;15.50;;;22.00;99.90;;;;;;5000869;28;20087;-70
2023/08/19 06:42:38;;;;;;;24.17;15.23;;;22.00;99.90;;;;;;5020533;28;20047;-70
2023/08/19 06:45:06;;;;;;;19.77;14.82;;;22.00;99.90;;;;;;5008455;28;20091;-70
2023/08/19 06:47:36;;;;;;;19.33;15.40;;;22.00;99.90;;;;;;5030740;28;20420;-70
2023/08/19 06:50:02;;;;;;;20.48;14.15;;;22.00;99.90;;;;;;5009288;28;20130;-68
2023/08/19 06:52:27;;;;;;;20.33;14.82;;;22.10;99.90;;;;;;5021591;28;20061;-67
2023/08/19 06:54:53;;;;;;;19.55;14.45;;;22.10;99.90;;;;;;5014709;28;20042;-67
2023/08/19 06:57:29;;;;;;;25.83;15.32;;;22.10;99.90;;;;;;5023464;28;20037;-67
2023/08/19 07:00:11;;;;;;;20.58;14.02;;;22.20;99.90;;;;;;5008313;28;20085;-70
2023/08/19 07:02:38;;;;;;;19.60;13.82;;;22.20;99.90;;;;;;5003800;28;20044;-70
2023/08/19 07:05:15;;;;;;;22.38;14.27;;;22.20;99.90;;;;;;5020982;28;20041;-71
2023/08/19 07:07:49;;;;;;;19.92;13.63;;;22.30;99.90;;;;;;5013351;28;20088;-71
2023/08/19 07:10:16;;;;;;;20.48;14.75;;;22.40;99.90;;;;;;5004462;28;20132;-70
2023/08/19 07:12:43;;;;;;;19.65;14.15;;;22.30;99.90;;;;;;5029199;28;20091;-72
2023/08/19 07:15:12;;;;;;;20.50;14.32;;;22.30;99.90;;;;;;5013139;28;20377;-70
2023/08/19 07:17:42;;;;;;;17.30;13.60;;;22.40;99.90;;;;;;5000075;28;20050;-69
2023/08/19 07:20:11;;;;;;;23.83;14.43;;;22.50;99.90;;;;;;4993334;28;20092;-71
2023/08/19 07:22:37;;;;;;;23.95;14.23;;;22.40;99.90;;;;;;5022370;28;20045;-71
2023/08/19 07:25:04;;;;;;;17.20;12.85;;;22.50;99.90;;;;;;5013719;28;20050;-71
2023/08/19 07:27:32;;;;;;;17.70;12.75;;;22.50;99.90;;;;;;5009370;28;20038;-71
2023/08/19 07:29:59;;;;;;;15.07;12.75;;;22.50;99.90;;;;;;5009341;28;20042;-72
2023/08/19 07:32:27;;;;;;;17.75;12.25;;;22.60;99.90;;;;;;5004269;28;20029;-72
2023/08/19 07:34:52;;;;;;;15.60;11.93;;;22.70;99.90;;;;;;5012664;28;20459;-72
2023/08/19 07:37:18;;;;;;;17.77;12.25;;;22.90;99.90;;;;;;5008454;28;20037;-69
2023/08/19 07:39:43;;;;;;;16.38;11.88;;;23.00;99.90;;;;;;5006032;28;20082;-72
2023/08/19 07:42:09;;;;;;;13.23;11.23;;;23.00;99.90;;;;;;5022386;28;20120;-72
2023/08/19 07:44:35;;;;;;;13.80;10.82;;;23.20;99.90;;;;;;4996170;28;20108;-69
2023/08/19 07:47:00;;;;;;;13.07;10.45;;;23.20;99.90;;;;;;5026151;28;20029;-71
2023/08/19 07:49:26;;;;;;;15.98;10.63;;;23.30;99.90;;;;;;4996789;28;20108;-71
2023/08/19 07:51:52;;;;;;;14.77;10.80;;;23.40;99.90;;;;;;5022886;28;20038;-71
2023/08/19 07:54:21;;;;;;;14.50;10.82;;;23.50;99.90;;;;;;5013022;28;20073;-70
2023/08/19 07:56:47;;;;;;;16.20;10.73;;;23.60;99.90;;;;;;5008041;28;20073;-72
2023/08/19 07:59:12;;;;;;;14.88;11.00;;;23.70;99.90;;;;;;5007166;28;20088;-71
2023/08/19 08:01:38;;;;;;;15.48;11.23;;;23.70;99.90;;;;;;4998037;28;20428;-71
2023/08/19 08:04:04;;;;;;;13.80;10.13;;;23.80;99.90;;;;;;5001194;28;20046;-72
2023/08/19 08:06:30;;;;;;;14.55;10.70;;;23.90;99.90;;;;;;5014660;28;20472;-72
2023/08/19 08:08:55;;;;;;;11.82;10.30;;;24.00;99.90;;;;;;5020942;28;20090;-72
2023/08/19 08:11:21;;;;;;;19.90;11.82;;;24.10;99.90;;;;;;5021161;28;20084;-72
2023/08/19 08:13:47;;;;;;;12.55;10.20;;;24.20;99.90;;;;;;5015367;28;20037;-72
2023/08/19 08:16:12;;;;;;;12.65;10.20;;;24.30;99.90;;;;;;5008205;28;20141;-72
2023/08/19 08:18:38;;;;;;;17.15;10.43;;;24.30;99.90;;;;;;5012158;28;20052;-72
2023/08/19 08:21:03;;;;;;;11.15;9.95;;;24.40;99.90;;;;;;5015958;28;20106;-72
2023/08/19 08:23:29;;;;;;;11.18;9.60;;;24.50;99.90;;;;;;5034300;28;20045;-72
2023/08/19 08:25:55;;;;;;;11.70;9.68;;;24.50;99.90;;;;;;5020510;28;20116;-72
2023/08/19 08:28:21;;;;;;;16.98;9.75;;;24.70;99.90;;;;;;5007989;28;20045;-72
2023/08/19 08:30:46;;;;;;;13.82;10.85;;;24.80;99.90;;;;;;5033308;28;20494;-72
2023/08/19 08:33:13;;;;;;;11.50;9.68;;;24.80;99.90;;;;;;5029375;28;20156;-72
2023/08/19 08:35:38;;;;;;;14.30;8.95;;;24.90;99.90;;;;;;5023275;28;20076;-72
2023/08/19 08:38:04;;;;;;;12.45;9.40;;;25.00;99.90;;;;;;5015581;28;20069;-72
2023/08/19 08:40:31;;;;;;;11.25;8.65;;;25.10;99.90;;;;;;5007264;28;20070;-71
2023/08/19 08:42:58;;;;;;;11.02;8.98;;;25.20;99.90;;;;;;5004816;28;20052;-70
2023/08/19 08:45:26;;;;;;;10.52;9.18;;;25.20;99.90;;;;;;5033356;28;20403;-71
2023/08/19 08:47:54;;;;;;;14.15;9.25;;;25.20;99.90;;;;;;5009403;28;20033;-69
2023/08/19 08:50:21;;;;;;;13.85;8.88;;;25.30;99.90;;;;;;5022277;28;20076;-71
2023/08/19 08:52:47;;;;;;;11.52;9.32;;;25.40;99.90;;;;;;5019543;28;20052;-69
2023/08/19 08:55:12;;;;;;;11.95;9.32;;;25.60;99.90;;;;;;5033376;28;20119;-69
2023/08/19 08:57:38;;;;;;;11.43;8.73;;;25.70;99.90;;;;;;5029666;28;20076;-69
2023/08/19 09:00:06;;;;;;;11.90;9.18;;;25.80;99.90;;;;;;5024152;28;20084;-69
2023/08/19 09:02:32;;;;;;;9.90;8.85;;;25.80;99.90;;;;;;5025976;28;20085;-68
2023/08/19 09:04:59;;;;;;;10.68;9.57;;;25.70;99.90;;;;;;5026475;28;20076;-69
2023/08/19 09:07:32;;;;;;;11.63;9.65;;;25.70;99.90;;;;;;5019918;28;20040;-69
2023/08/19 09:09:59;;;;;;;12.40;10.02;;;25.80;99.90;;;;;;5015728;28;20037;-70
2023/08/19 09:12:26;;;;;;;11.75;9.57;;;25.90;99.90;;;;;;5001410;28;20049;-71
2023/08/19 09:14:57;;;;;;;10.77;9.45;;;25.90;99.90;;;;;;5006233;28;20050;-71
2023/08/19 09:17:23;;;;;;;13.10;10.02;;;25.90;99.90;;;;;;5002893;28;20504;-71
2023/08/19 09:19:49;;;;;;;11.77;9.50;;;26.10;99.90;;;;;;5006581;28;20049;-70
2023/08/19 09:22:18;;;;;;;13.63;9.80;;;26.10;99.90;;;;;;5005320;28;20033;-70
2023/08/19 09:24:44;;;;;;;12.00;8.98;;;26.10;99.90;;;;;;5025819;28;20049;-72
2023/08/19 09:27:10;;;;;;;14.10;8.80;;;26.20;99.90;;;;;;5010613;28;20041;-72
2023/08/19 09:29:35;;;;;;;11.73;8.82;;;26.30;99.90;;;;;;5004461;28;20043;-71
2023/08/19 09:32:02;;;;;;;11.73;8.40;;;26.50;99.90;;;;;;5003354;28;20088;-71
2023/08/19 09:34:28;;;;;;;11.88;8.43;;;26.60;99.90;;;;;;5018858;28;20037;-72
2023/08/19 09:36:56;;;;;;;12.63;8.55;;;26.70;99.90;;;;;;5022028;28;20038;-70
2023/08/19 09:39:25;;;;;;;12.48;8.40;;;26.80;99.90;;;;;;5019282;28;20395;-71
2023/08/19 09:41:57;;;;;;;13.63;8.75;;;26.90;99.90;;;;;;5009663;28;20092;-71
2023/08/19 09:44:25;;;;;;;15.80;8.82;;;27.10;99.90;;;;;;5018695;28;20048;-69
2023/08/19 09:46:51;;;;;;;13.88;8.68;;;27.30;99.90;;;;;;5023575;28;20037;-73
2023/08/19 09:49:21;;;;;;;12.90;8.93;;;27.40;99.90;;;;;;5010979;28;20041;-71
2023/08/19 09:51:53;;;;;;;14.32;8.30;;;27.60;99.90;;;;;;5023377;28;20191;-73
2023/08/19 09:54:19;;;;;;;15.07;8.63;;;27.70;99.90;;;;;;5000530;28;20045;-73
2023/08/19 09:56:56;;;;;;;14.15;8.60;;;27.80;99.90;;;;;;4998836;28;20049;-73
2023/08/19 09:59:26;;;;;;;18.65;8.95;;;28.00;99.90;;;;;;5001028;28;20446;-72
2023/08/19 10:01:53;;;;;;;37.13;18.52;;;28.00;99.90;;;;;;5020059;28;20045;-70
2023/08/19 10:04:20;;;;;;;40.90;17.95;;;27.90;99.90;;;;;;5019267;28;20057;-70
2023/08/19 10:06:49;;;;;;;17.38;9.13;;;28.00;99.90;;;;;;5007091;28;20041;-67
2023/08/19 10:09:18;;;;;;;9.15;7.30;;;28.20;99.90;;;;;;5023892;28;20572;-68
2023/08/19 10:11:45;;;;;;;10.27;8.65;;;28.00;99.90;;;;;;5025429;28;20045;-68
2023/08/19 10:14:11;;;;;;;14.90;9.27;;;28.00;99.90;;;;;;5004778;28;20046;-68
2023/08/19 10:16:42;;;;;;;12.73;8.60;;;27.90;99.90;;;;;;5021559;28;20037;-71
2023/08/19 10:19:10;;;;;;;12.25;7.82;;;28.00;99.90;;;;;;5026168;28;20033;-71
2023/08/19 10:21:40;;;;;;;13.05;8.32;;;28.00;99.90;;;;;;5010710;28;20038;-70
2023/08/19 10:24:07;;;;;;;13.73;8.57;;;28.00;99.90;;;;;;5020383;28;20033;-69
2023/08/19 10:26:33;;;;;;;13.80;8.68;;;28.00;99.90;;;;;;5021017;28;20091;-70
2023/08/19 10:29:07;;;;;;;13.20;9.30;;;27.90;99.90;;;;;;5020602;28;20065;-70
2023/08/19 10:31:35;;;;;;;12.60;9.32;;;27.70;99.90;;;;;;5021069;28;20049;-70
2023/08/19 10:34:29;;;;;;;11.98;9.48;;;27.60;99.90;;;;;;5023217;28;20048;-69
2023/08/19 10:37:08;;;;;;;14.80;9.80;;;27.30;99.90;;;;;;5009715;28;20049;-70
2023/08/19 10:39:35;;;;;;;16.52;9.95;;;26.90;99.90;;;;;;4990951;28;20497;-71
2023/08/19 10:42:01;;;;;;;11.57;9.60;;;26.70;99.90;;;;;;5024585;28;20041;-69
2023/08/19 10:44:31;;;;;;;13.45;9.23;;;26.50;99.90;;;;;;4999952;28;20050;-68
2023/08/19 10:47:18;;;;;;;14.52;10.52;;;26.30;99.90;;;;;;5035462;28;20086;-70
2023/08/19 10:49:46;;;;;;;17.33;11.07;;;26.10;99.90;;;;;;5024953;28;20044;-72
2023/08/19 10:52:20;;;;;;;14.25;10.70;;;26.00;99.90;;;;;;5004303;28;20034;-67
2023/08/19 10:54:47;;;;;;;15.80;11.13;;;26.00;99.90;;;;;;4995045;28;20045;-67
2023/08/19 10:57:24;;;;;;;16.02;10.40;;;25.90;99.90;;;;;;5018885;28;20038;-66
2023/08/19 11:00:00;;;;;;;15.20;11.88;;;25.80;99.90;;;;;;5019911;28;20042;-71
2023/08/19 11:02:28;;;;;;;13.13;11.48;;;25.90;99.90;;;;;;5009945;28;20041;-73
2023/08/19 11:04:54;;;;;;;17.30;12.30;;;25.80;99.90;;;;;;5016423;28;20037;-68
2023/08/19 11:07:21;;;;;;;16.08;11.70;;;25.70;99.90;;;;;;5020074;28;20033;-72
2023/08/19 11:09:51;;;;;;;14.23;12.73;;;25.70;99.90;;;;;;5001893;28;20045;-69
2023/08/19 11:12:19;;;;;;;16.67;12.35;;;25.80;99.90;;;;;;5017992;28;20083;-70
2023/08/19 11:14:47;;;;;;;17.85;12.80;;;25.90;99.90;;;;;;4997280;28;20042;-68
2023/08/19 11:17:13;;;;;;;17.98;11.93;;;26.20;99.90;;;;;;5015296;28;21054;-70
2023/08/19 11:19:38;;;;;;;14.95;11.50;;;26.50;99.90;;;;;;5013270;28;20068;-70
2023/08/19 11:22:05;;;;;;;17.70;12.02;;;26.70;99.90;;;;;;5018671;28;20469;-71
2023/08/19 11:24:32;;;;;;;15.75;12.43;;;26.80;99.90;;;;;;5021132;28;20041;-72
2023/08/19 11:26:58;;;;;;;16.15;12.52;;;27.00;99.90;;;;;;5019520;28;20087;-72
2023/08/19 11:29:24;;;;;;;14.43;12.35;;;27.10;99.90;;;;;;5003060;28;20514;-72
2023/08/19 11:31:49;;;;;;;18.15;12.25;;;27.30;99.90;;;;;;5015195;28;20033;-72
2023/08/19 11:34:15;;;;;;;17.08;12.15;;;27.60;99.90;;;;;;5020240;28;20037;-71
2023/08/19 11:36:43;;;;;;;18.67;12.65;;;27.60;99.90;;;;;;4994837;28;20056;-73
2023/08/19 11:39:09;;;;;;;15.70;12.18;;;27.70;99.90;;;;;;5001129;28;20051;-72
2023/08/19 11:41:35;;;;;;;19.15;12.40;;;27.70;99.90;;;;;;5027130;28;20030;-70
2023/08/19 11:44:05;;;;;;;15.43;12.07;;;27.80;99.90;;;;;;5034783;28;20480;-70
2023/08/19 11:46:33;;;;;;;15.00;12.73;;;27.80;99.90;;;;;;5006463;28;20041;-73
2023/08/19 11:49:03;;;;;;;14.80;12.45;;;27.80;99.90;;;;;;5020592;28;20037;-72
2023/08/19 11:51:29;;;;;;;18.70;13.05;;;28.20;99.90;;;;;;5023831;28;20034;-71
2023/08/19 11:54:02;;;;;;;14.50;12.65;;;28.50;99.90;;;;;;5020996;28;20033;-71
2023/08/19 11:56:29;;;;;;;16.88;13.43;;;28.60;99.90;;;;;;5007720;28;20045;-71
2023/08/19 11:58:55;;;;;;;22.35;14.27;;;28.80;99.90;;;;;;5029508;28;20044;-71
2023/08/19 12:01:22;;;;;;;18.83;15.35;;;28.90;99.90;;;;;;5023142;28;20037;-71
2023/08/19 12:03:50;;;;;;;21.25;15.02;;;28.90;99.90;;;;;;5014730;28;20152;-69
2023/08/19 12:06:16;;;;;;;19.42;16.02;;;28.60;99.90;;;;;;4989545;28;20030;-69
2023/08/19 12:08:44;;;;;;;19.10;15.38;;;28.50;99.90;;;;;;5008321;28;20049;-74
2023/08/19 12:11:15;;;;;;;22.80;15.80;;;28.50;99.90;;;;;;5007663;28;20128;-72
2023/08/19 12:13:41;;;;;;;21.58;15.15;;;28.40;99.90;;;;;;5002464;28;20363;-71
2023/08/19 12:16:07;;;;;;;19.23;15.90;;;28.30;99.90;;;;;;5022372;28;20591;-70
2023/08/19 12:18:34;;;;;;;20.67;16.17;;;28.30;99.90;;;;;;5004759;28;20408;-71
2023/08/19 12:21:03;;;;;;;20.05;17.00;;;28.10;99.90;;;;;;5015776;28;20124;-71
2023/08/19 12:23:29;;;;;;;21.17;17.77;;;28.00;99.90;;;;;;5017942;28;20044;-71
2023/08/19 12:25:57;;;;;;;20.38;17.65;;;28.00;99.90;;;;;;5014708;28;20113;-69
2023/08/19 12:28:24;;;;;;;20.73;17.85;;;28.00;99.90;;;;;;5024794;28;20099;-69